Time;durP1;ratioP1;P1;durP2;ratioP2;P2;SDS_P1;SDS_P2;PMS_P1;PMS_P2;Temp;Humidity;BMP_temperature;BMP_pressure;BME280_temperature;BME280_humidity;BME280_pressure;Samples;Min_cycle;Max_cycle;Signal;HPM_P1;HPM_P2
2021/11/13 00:00:14;;;;;;;;;;;;;;;0.08;100.00;100145.94;1654367;86;20116;-69
2021/11/13 00:02:43;;;;;;;;;;;;;;;0.08;100.00;100136.70;1648734;86;20141;-69
2021/11/13 00:05:10;;;;;;;;;;;;;;;0.07;100.00;100143.46;1643083;86;20688;-69
2021/11/13 00:07:40;;;;;;;;;;;;;;;-0.05;100.00;100137.72;1652072;86;20183;-69
2021/11/13 00:10:07;;;;;;;;;;;;;;;-0.16;100.00;100140.75;1654315;86;21127;-69
2021/11/13 00:12:35;;;;;;;;;;;;;;;-0.18;100.00;100140.09;1636116;87;20232;-69
2021/11/13 00:15:03;;;;;;;;;;;;;;;-0.13;100.00;100149.13;1651433;86;20173;-69
2021/11/13 00:17:30;;;;;;;;;;;;;;;-0.13;100.00;100149.63;1667153;86;20647;-69
2021/11/13 00:19:58;;;;;;;;;;;;;;;-0.15;100.00;100149.80;1641434;86;20124;-69
2021/11/13 00:22:25;;;;;;;;;;;;;;;-0.20;100.00;100146.03;1649210;86;22473;-69
2021/11/13 00:24:53;;;;;;;;;;;;;;;-0.27;100.00;100142.76;1648153;85;20251;-69
2021/11/13 00:27:20;;;;;;;;;;;;;;;-0.30;100.00;100147.03;1647278;86;20575;-69
2021/11/13 00:29:46;;;;;;;;;;;;;;;-0.33;100.00;100147.38;1655111;86;20169;-69
2021/11/13 00:32:13;;;;;;;;;;;;;;;-0.50;100.00;100148.40;1637539;86;20123;-68
2021/11/13 00:34:40;;;;;;;;;;;;;;;-0.62;100.00;100147.09;1636314;87;21166;-69
2021/11/13 00:37:06;;;;;;;;;;;;;;;-0.61;100.00;100156.64;1663273;86;20163;-70
2021/11/13 00:39:33;;;;;;;;;;;;;;;-0.54;100.00;100148.39;1672213;85;20077;-68
2021/11/13 00:41:59;;;;;;;;;;;;;;;-0.51;100.00;100152.03;1670746;86;20105;-69
2021/11/13 00:44:27;;;;;;;;;;;;;;;-0.51;100.00;100154.17;1673390;86;20105;-68
2021/11/13 00:46:53;;;;;;;;;;;;;;;-0.51;100.00;100153.36;1672827;86;21162;-69
2021/11/13 00:49:20;;;;;;;;;;;;;;;-0.49;100.00;100156.63;1644003;86;20131;-69
2021/11/13 00:51:46;;;;;;;;;;;;;;;-0.47;100.00;100149.37;1636329;87;20159;-69
2021/11/13 00:54:13;;;;;;;;;;;;;;;-0.48;100.00;100153.02;1636258;86;20137;-69
2021/11/13 00:56:41;;;;;;;;;;;;;;;-0.53;100.00;100145.60;1636236;86;20466;-69
2021/11/13 00:59:07;;;;;;;;;;;;;;;-0.52;100.00;100149.05;1642629;87;21135;-69
2021/11/13 01:01:34;;;;;;;;;;;;;;;-0.52;100.00;100149.88;1654172;86;20169;-69
2021/11/13 01:04:01;;;;;;;;;;;;;;;-0.51;100.00;100150.72;1640073;85;20210;-69
2021/11/13 01:06:29;;;;;;;;;;;;;;;-0.50;100.00;100152.36;1638947;86;20104;-69
2021/11/13 01:08:55;;;;;;;;;;;;;;;-0.50;100.00;100161.58;1644420;86;20167;-69
2021/11/13 01:11:27;;;;;;;;;;;;;;;-0.54;100.00;100161.58;1634444;86;20158;-70
2021/11/13 01:13:55;;;;;;;;;;;;;;;-0.53;100.00;100168.02;1626758;87;20189;-70
2021/11/13 01:16:24;;;;;;;;;;;;;;;-0.49;100.00;100165.86;1621422;87;20094;-68
2021/11/13 01:18:50;;;;;;;;;;;;;;;-0.42;100.00;100166.84;1649926;86;20146;-70
2021/11/13 01:21:20;;;;;;;;;;;;;;;-0.44;100.00;100168.34;1648165;86;20419;-69
2021/11/13 01:23:48;;;;;;;;;;;;;;;-0.48;100.00;100169.66;1636681;86;20128;-69
2021/11/13 01:26:15;;;;;;;;;;;;;;;-0.54;100.00;100170.81;1642339;86;20151;-69
2021/11/13 01:28:42;;;;;;;;;;;;;;;-0.58;100.00;100161.10;1639389;85;20104;-69
2021/11/13 01:31:09;;;;;;;;;;;;;;;-0.56;100.00;100164.91;1647161;86;20668;-69
2021/11/13 01:33:36;;;;;;;;;;;;;;;-0.57;100.00;100161.92;1660722;86;20118;-69
2021/11/13 01:36:04;;;;;;;;;;;;;;;-0.62;100.00;100161.09;1635297;86;20186;-69
2021/11/13 01:38:34;;;;;;;;;;;;;;;-0.70;100.00;100164.56;1632078;86;20124;-69
2021/11/13 01:41:01;;;;;;;;;;;;;;;-0.75;100.00;100164.74;1631893;86;20164;-70
2021/11/13 01:43:31;;;;;;;;;;;;;;;-0.79;100.00;100162.91;1635924;86;20762;-69
2021/11/13 01:46:02;;;;;;;;;;;;;;;-0.82;100.00;100153.20;1660556;86;20089;-70
2021/11/13 01:48:29;;;;;;;;;;;;;;;-0.68;100.00;100156.00;1645971;86;21178;-70
2021/11/13 01:50:56;;;;;;;;;;;;;;;-0.47;100.00;100152.83;1631586;88;20080;-69
2021/11/13 01:53:23;;;;;;;;;;;;;;;-0.35;100.00;100151.98;1632580;88;20450;-70
2021/11/13 01:55:53;;;;;;;;;;;;;;;-0.34;100.00;100154.12;1590941;89;20683;-69
2021/11/13 01:58:24;;;;;;;;;;;;;;;-0.33;100.00;100155.79;1632434;86;20175;-70
2021/11/13 02:00:53;;;;;;;;;;;;;;;-0.21;100.00;100154.45;1638125;86;21220;-70
2021/11/13 02:03:22;;;;;;;;;;;;;;;-0.06;100.00;100154.06;1632683;87;20446;-69
2021/11/13 02:05:50;;;;;;;;;;;;;;;-0.02;100.00;100157.20;1623187;87;20134;-70
2021/11/13 02:08:18;;;;;;;;;;;;;;;-0.07;100.00;100151.61;1618777;88;20137;-69
2021/11/13 02:10:45;;;;;;;;;;;;;;;-0.11;100.00;100158.21;1623990;87;20441;-69
2021/11/13 02:13:12;;;;;;;;;;;;;;;-0.18;100.00;100161.20;1642983;86;21155;-69
2021/11/13 02:15:40;;;;;;;;;;;;;;;-0.33;100.00;100161.88;1623913;87;20169;-69
2021/11/13 02:18:07;;;;;;;;;;;;;;;-0.37;100.00;100157.11;1614661;87;20142;-70
2021/11/13 02:20:39;;;;;;;;;;;;;;;-0.33;100.00;100153.97;1645167;87;20468;-69
2021/11/13 02:23:16;;;;;;;;;;;;;;;-0.24;100.00;100155.61;1651157;86;20305;-69
2021/11/13 02:25:42;;;;;;;;;;;;;;;-0.04;100.00;100146.80;1623833;87;21172;-69
2021/11/13 02:28:12;;;;;;;;;;;;;;;0.15;100.00;100155.33;1620020;87;20635;-69
2021/11/13 02:30:39;;;;;;;;;;;;;;;0.27;100.00;100152.63;1604401;89;20172;-69
2021/11/13 02:33:07;;;;;;;;;;;;;;;0.25;100.00;100147.20;1587452;88;20633;-69
2021/11/13 02:35:34;;;;;;;;;;;;;;;0.19;100.00;100154.78;1623728;87;20130;-69
2021/11/13 02:38:15;;;;;;;;;;;;;;;0.15;100.00;100156.65;1619604;87;21111;-69
2021/11/13 02:40:44;;;;;;;;;;;;;;;0.16;100.00;100164.38;1556668;90;20425;-69
2021/11/13 02:43:12;;;;;;;;;;;;;;;0.15;100.00;100154.83;1618741;88;20419;-69
2021/11/13 02:45:39;;;;;;;;;;;;;;;0.17;100.00;100164.72;1638484;87;20139;-69
2021/11/13 02:48:06;;;;;;;;;;;;;;;0.23;100.00;100170.31;1636087;86;20190;-69
2021/11/13 02:50:33;;;;;;;;;;;;;;;0.25;100.00;100165.18;1623761;86;21937;-69
2021/11/13 02:53:00;;;;;;;;;;;;;;;0.31;100.00;100161.84;1642032;87;20130;-69
2021/11/13 02:55:27;;;;;;;;;;;;;;;0.37;100.00;100162.99;1644423;87;20111;-70
2021/11/13 02:57:54;;;;;;;;;;;;;;;0.40;100.00;100161.31;1646506;85;20108;-68
2021/11/13 03:00:25;;;;;;;;;;;;;;;0.41;100.00;100166.91;1616869;88;20114;-69
2021/11/13 03:02:51;;;;;;;;;;;;;;;0.43;100.00;100171.53;1616954;89;21149;-70
2021/11/13 03:05:33;;;;;;;;;;;;;;;0.44;100.00;100166.56;1625040;86;20178;-70
2021/11/13 03:08:02;;;;;;;;;;;;;;;0.47;100.00;100171.52;1645269;87;20196;-70
2021/11/13 03:10:34;;;;;;;;;;;;;;;0.52;100.00;100171.82;1645546;87;20188;-70
2021/11/13 03:13:03;;;;;;;;;;;;;;;0.59;100.00;100178.05;1645190;86;20144;-70
2021/11/13 03:15:30;;;;;;;;;;;;;;;0.63;100.00;100174.56;1611711;87;21174;-70
2021/11/13 03:17:57;;;;;;;;;;;;;;;0.64;100.00;100178.36;1645418;87;20452;-70
2021/11/13 03:20:27;;;;;;;;;;;;;;;0.67;100.00;100179.02;1645203;87;20187;-70
2021/11/13 03:22:56;;;;;;;;;;;;;;;0.68;100.00;100181.46;1650492;85;20210;-70
2021/11/13 03:25:25;;;;;;;;;;;;;;;0.74;100.00;100187.39;1662964;85;20125;-70
2021/11/13 03:27:54;;;;;;;;;;;;;;;0.77;100.00;100184.89;1654623;86;21148;-70
2021/11/13 03:30:22;;;;;;;;;;;;;;;0.79;100.00;100177.11;1652584;85;20104;-69
2021/11/13 03:32:50;;;;;;;;;;;;;;;0.84;100.00;100185.84;1660273;84;20124;-70
2021/11/13 03:35:26;;;;;;;;;;;;;;;0.87;100.00;100189.45;1673941;85;20090;-70
2021/11/13 03:37:47;;;;;;;;;;;;;;;0.89;100.00;100186.14;1673594;85;20098;-69
2021/11/13 03:40:14;;;;;;;;;;;;;;;0.94;100.00;100188.27;1655942;84;21161;-71
2021/11/13 03:42:42;;;;;;;;;;;;;;;0.96;100.00;100187.08;1663039;85;20181;-69
2021/11/13 03:45:08;;;;;;;;;;;;;;;0.99;100.00;100192.52;1652605;85;20157;-70
2021/11/13 03:47:35;;;;;;;;;;;;;;;0.99;100.00;100188.05;1656302;85;20187;-69
2021/11/13 03:50:02;;;;;;;;;;;;;;;0.99;100.00;100194.66;1663500;84;20182;-69
2021/11/13 03:52:29;;;;;;;;;;;;;;;1.03;100.00;100196.47;1650025;85;21981;-69
2021/11/13 03:54:55;;;;;;;;;;;;;;;1.08;100.00;100191.47;1653735;85;20190;-69
2021/11/13 03:57:22;;;;;;;;;;;;;;;1.13;100.00;100190.91;1650020;85;20113;-69
2021/11/13 03:59:49;;;;;;;;;;;;;;;1.17;100.00;100183.78;1666643;84;20470;-69
2021/11/13 04:02:17;;;;;;;;;;;;;;;1.21;100.00;100184.27;1652680;85;20189;-70
2021/11/13 04:04:44;;;;;;;;;;;;;;;1.19;100.00;100187.58;1647307;85;21902;-69
2021/11/13 04:07:10;;;;;;;;;;;;;;;1.21;100.00;100184.27;1634926;86;20195;-69
2021/11/13 04:09:39;;;;;;;;;;;;;;;1.23;100.00;100189.70;1642825;86;20155;-69
2021/11/13 04:12:10;;;;;;;;;;;;;;;1.28;100.00;100195.27;1642504;86;20159;-69
2021/11/13 04:14:39;;;;;;;;;;;;;;;1.35;100.00;100194.55;1648260;86;20125;-69
2021/11/13 04:17:05;;;;;;;;;;;;;;;1.39;100.00;100198.49;1667603;86;21139;-68
2021/11/13 04:19:32;;;;;;;;;;;;;;;1.39;100.00;100197.17;1667611;86;20466;-69
2021/11/13 04:22:01;;;;;;;;;;;;;;;1.39;100.00;100197.17;1667146;86;20173;-69
2021/11/13 04:24:28;;;;;;;;;;;;;;;1.38;100.00;100192.38;1669456;86;20133;-69
2021/11/13 04:26:55;;;;;;;;;;;;;;;1.38;100.00;100194.22;1666214;86;20275;-69
2021/11/13 04:29:22;;;;;;;;;;;;;;;1.38;100.00;100185.77;1667380;86;21826;-69
2021/11/13 04:31:49;;;;;;;;;;;;;;;1.42;100.00;100188.88;1646443;86;21596;-69
2021/11/13 04:34:25;;;;;;;;;;;;;;;1.40;100.00;100193.03;1642852;86;20154;-69
2021/11/13 04:36:46;;;;;;;;;;;;;;;1.38;100.00;100192.89;1640801;86;20131;-70
2021/11/13 04:39:12;;;;;;;;;;;;;;;1.32;100.00;100187.79;1658548;86;20159;-70
2021/11/13 04:41:40;;;;;;;;;;;;;;;1.26;100.00;100193.30;1640898;86;21976;-69
2021/11/13 04:44:06;;;;;;;;;;;;;;;1.22;100.00;100197.28;1657554;86;20096;-70
2021/11/13 04:46:33;;;;;;;;;;;;;;;1.19;100.00;100196.83;1672313;86;20137;-69
2021/11/13 04:49:01;;;;;;;;;;;;;;;1.16;100.00;100198.02;1671970;85;20101;-69
2021/11/13 04:51:27;;;;;;;;;;;;;;;1.13;100.00;100196.20;1672234;86;20149;-69
2021/11/13 04:53:54;;;;;;;;;;;;;;;1.14;100.00;100200.00;1672226;85;21852;-70
2021/11/13 04:56:20;;;;;;;;;;;;;;;1.14;100.00;100205.30;1672475;86;20211;-70
2021/11/13 04:58:47;;;;;;;;;;;;;;;1.19;100.00;100210.88;1672426;86;20431;-69
2021/11/13 05:01:15;;;;;;;;;;;;;;;1.24;100.00;100210.34;1659083;86;20699;-69
2021/11/13 05:03:41;;;;;;;;;;;;;;;1.28;100.00;100218.26;1654505;86;20133;-69
2021/11/13 05:06:08;;;;;;;;;;;;;;;1.28;100.00;100214.30;1642935;85;21162;-69
2021/11/13 05:08:36;;;;;;;;;;;;;;;1.16;100.00;100223.13;1629944;88;20104;-70
2021/11/13 05:11:03;;;;;;;;;;;;;;;1.03;100.00;100226.36;1630313;87;20422;-69
2021/11/13 05:13:29;;;;;;;;;;;;;;;0.91;100.00;100227.77;1630103;88;20748;-69
2021/11/13 05:15:56;;;;;;;;;;;;;;;0.80;100.00;100232.10;1630226;88;20189;-69
2021/11/13 05:18:24;;;;;;;;;;;;;;;0.69;100.00;100235.97;1630217;88;21165;-70
2021/11/13 05:20:50;;;;;;;;;;;;;;;0.60;100.00;100236.49;1630055;87;20318;-69
2021/11/13 05:23:21;;;;;;;;;;;;;;;0.52;100.00;100239.18;1643491;86;20153;-70
2021/11/13 05:25:48;;;;;;;;;;;;;;;0.45;100.00;100244.00;1658845;86;20121;-69
2021/11/13 05:28:14;;;;;;;;;;;;;;;0.39;100.00;100240.20;1639793;86;20805;-70
2021/11/13 05:30:42;;;;;;;;;;;;;;;0.34;100.00;100238.58;1658481;86;22298;-70
2021/11/13 05:33:11;;;;;;;;;;;;;;;0.35;100.00;100238.41;1656582;86;20829;-69
2021/11/13 05:35:37;;;;;;;;;;;;;;;0.40;100.00;100236.59;1630970;86;20167;-70
2021/11/13 05:38:04;;;;;;;;;;;;;;;0.43;100.00;100239.70;1631482;87;20672;-69
2021/11/13 05:40:31;;;;;;;;;;;;;;;0.52;100.00;100251.06;1636719;86;20150;-69
2021/11/13 05:42:58;;;;;;;;;;;;;;;0.56;100.00;100254.99;1638352;86;21859;-70
2021/11/13 05:45:25;;;;;;;;;;;;;;;0.51;100.00;100259.97;1646335;86;20464;-69
2021/11/13 05:47:58;;;;;;;;;;;;;;;0.48;100.00;100262.14;1640814;86;20153;-69
2021/11/13 05:50:27;;;;;;;;;;;;;;;0.43;100.00;100271.39;1640757;86;20592;-71
2021/11/13 05:52:53;;;;;;;;;;;;;;;0.42;100.00;100275.54;1633357;86;20109;-70
2021/11/13 05:55:23;;;;;;;;;;;;;;;0.42;100.00;100276.36;1632934;86;21152;-69
2021/11/13 05:57:49;;;;;;;;;;;;;;;0.43;100.00;100280.64;1643731;85;20154;-70
2021/11/13 06:00:18;;;;;;;;;;;;;;;0.48;100.00;100277.99;1636068;86;20165;-70
2021/11/13 06:02:51;;;;;;;;;;;;;;;0.52;100.00;100281.45;1658048;86;20831;-70
2021/11/13 06:05:19;;;;;;;;;;;;;;;0.56;100.00;100282.73;1632501;86;20185;-70
2021/11/13 06:07:46;;;;;;;;;;;;;;;0.59;100.00;100280.27;1628234;85;21974;-71
2021/11/13 06:10:14;;;;;;;;;;;;;;;0.61;100.00;100285.71;1624851;86;20241;-70
2021/11/13 06:12:41;;;;;;;;;;;;;;;0.67;100.00;100286.84;1636700;87;20170;-68
2021/11/13 06:15:08;;;;;;;;;;;;;;;0.75;100.00;100292.58;1641934;86;20239;-70
2021/11/13 06:17:35;;;;;;;;;;;;;;;0.84;100.00;100296.34;1625597;87;20197;-69
2021/11/13 06:20:02;;;;;;;;;;;;;;;0.93;100.00;100294.50;1630633;87;21140;-71
2021/11/13 06:22:29;;;;;;;;;;;;;;;1.01;100.00;100293.63;1644988;86;20457;-71
2021/11/13 06:24:56;;;;;;;;;;;;;;;1.09;100.00;100300.19;1645967;87;20099;-71
2021/11/13 06:27:22;;;;;;;;;;;;;;;1.15;100.00;100301.30;1628330;87;20727;-70
2021/11/13 06:29:51;;;;;;;;;;;;;;;1.23;100.00;100305.23;1637836;87;20201;-70
2021/11/13 06:32:18;;;;;;;;;;;;;;;1.35;100.00;100295.91;1634753;86;21136;-72
2021/11/13 06:34:45;;;;;;;;;;;;;;;1.47;100.00;100297.63;1633824;87;20179;-70
2021/11/13 06:37:12;;;;;;;;;;;;;;;1.55;100.00;100304.20;1624250;86;20236;-73
2021/11/13 06:39:38;;;;;;;;;;;;;;;1.65;100.00;100306.61;1615582;87;20500;-71
2021/11/13 06:42:07;;;;;;;;;;;;;;;1.76;100.00;100302.20;1642626;87;20567;-71
2021/11/13 06:44:34;;;;;;;;;;;;;;;1.90;100.00;100309.88;1642607;87;20497;-72
2021/11/13 06:47:00;;;;;;;;;;;;;;;2.07;100.00;100311.88;1623165;88;20139;-71
2021/11/13 06:49:29;;;;;;;;;;;;;;;2.27;100.00;100320.95;1630910;87;20269;-70
2021/11/13 06:51:59;;;;;;;;;;;;;;;2.64;100.00;100313.94;1628393;87;20638;-72
2021/11/13 06:54:26;;;;;;;;;;;;;;;2.76;100.00;100315.11;1633943;87;20242;-70
2021/11/13 06:56:52;;;;;;;;;;;;;;;2.88;100.00;100321.29;1619639;86;21319;-69
2021/11/13 06:59:20;;;;;;;;;;;;;;;2.96;100.00;100320.70;1623087;87;20154;-70
2021/11/13 07:01:48;;;;;;;;;;;;;;;3.06;100.00;100320.38;1617395;88;20154;-70
2021/11/13 07:04:14;;;;;;;;;;;;;;;3.18;100.00;100319.40;1618624;87;20247;-71
2021/11/13 07:06:42;;;;;;;;;;;;;;;3.33;100.00;100324.66;1629975;85;20129;-71
2021/11/13 07:09:08;;;;;;;;;;;;;;;3.59;100.00;100331.58;1665564;86;21149;-70
2021/11/13 07:11:36;;;;;;;;;;;;;;;3.71;100.00;100327.11;1661507;85;20133;-70
2021/11/13 07:14:06;;;;;;;;;;;;;;;3.89;100.00;100320.02;1664313;86;20467;-72
2021/11/13 07:16:34;;;;;;;;;;;;;;;4.11;100.00;100328.27;1664955;86;20133;-71
2021/11/13 07:19:04;;;;;;;;;;;;;;;4.63;100.00;100327.48;1659091;85;20101;-69
2021/11/13 07:21:31;;;;;;;;;;;;;;;5.17;100.00;100328.08;1624144;86;21081;-68
2021/11/13 07:24:01;;;;;;;;;;;;;;;5.66;100.00;100330.97;1587691;90;20096;-73
2021/11/13 07:26:29;;;;;;;;;;;;;;;5.97;100.00;100328.25;1638402;86;20218;-70
2021/11/13 07:29:02;;;;;;;;;;;;;;;6.27;100.00;100330.50;1636944;86;20122;-71
2021/11/13 07:31:27;;;;;;;;;;;;;;;6.55;100.00;100340.42;1639529;86;20188;-71
2021/11/13 07:33:54;;;;;;;;;;;;;;;6.81;100.00;100331.55;1640873;87;21768;-73
2021/11/13 07:36:21;;;;;;;;;;;;;;;7.12;100.00;100333.17;1651208;86;20176;-73
2021/11/13 07:38:47;;;;;;;;;;;;;;;7.31;100.00;100340.28;1661252;85;20170;-71
2021/11/13 07:41:16;;;;;;;;;;;;;;;7.28;100.00;100338.04;1633055;86;20229;-71
2021/11/13 07:43:42;;;;;;;;;;;;;;;7.27;100.00;100340.39;1627380;88;20144;-71
2021/11/13 07:46:10;;;;;;;;;;;;;;;7.60;100.00;100342.09;1642358;86;21209;-70
2021/11/13 07:48:37;;;;;;;;;;;;;;;7.69;100.00;100346.12;1642015;85;20294;-71
2021/11/13 07:51:04;;;;;;;;;;;;;;;7.71;100.00;100348.06;1634207;86;20148;-73
2021/11/13 07:53:31;;;;;;;;;;;;;;;7.83;100.00;100351.68;1638015;87;20212;-72
2021/11/13 07:55:57;;;;;;;;;;;;;;;8.11;100.00;100348.61;1651124;87;20114;-72
2021/11/13 07:58:25;;;;;;;;;;;;;;;8.31;100.00;100348.97;1626165;86;21784;-71
2021/11/13 08:00:51;;;;;;;;;;;;;;;8.33;100.00;100349.05;1632663;87;20175;-73
2021/11/13 08:03:19;;;;;;;;;;;;;;;8.45;100.00;100346.51;1635228;86;20159;-71
2021/11/13 08:05:46;;;;;;;;;;;;;;;8.49;100.00;100349.02;1635314;87;20392;-70
2021/11/13 08:08:13;;;;;;;;;;;;;;;8.38;100.00;100348.39;1636578;86;20131;-72
2021/11/13 08:10:41;;;;;;;;;;;;;;;8.42;100.00;100350.13;1637719;86;20479;-73
2021/11/13 08:13:11;;;;;;;;;;;;;;;8.50;100.00;100353.34;1641080;86;20102;-73
2021/11/13 08:15:40;;;;;;;;;;;;;;;8.50;100.00;100351.17;1645901;86;20440;-72
2021/11/13 08:18:09;;;;;;;;;;;;;;;8.37;100.00;100340.86;1679182;85;20146;-71
2021/11/13 08:20:37;;;;;;;;;;;;;;;7.92;100.00;100338.89;1651309;87;20122;-73
2021/11/13 08:23:09;;;;;;;;;;;;;;;7.91;100.00;100344.76;1650650;86;20185;-71
2021/11/13 08:25:40;;;;;;;;;;;;;;;7.92;100.00;100342.37;1651007;87;20336;-72
2021/11/13 08:28:08;;;;;;;;;;;;;;;8.17;100.00;100345.58;1651383;86;20110;-72
2021/11/13 08:30:35;;;;;;;;;;;;;;;8.31;100.00;100344.95;1651313;86;20217;-72
2021/11/13 08:33:02;;;;;;;;;;;;;;;8.54;100.00;100342.48;1634855;86;20130;-72
2021/11/13 08:35:29;;;;;;;;;;;;;;;8.67;100.00;100342.05;1651495;87;20896;-72
2021/11/13 08:37:57;;;;;;;;;;;;;;;8.57;100.00;100340.73;1652278;86;20114;-72
2021/11/13 08:40:24;;;;;;;;;;;;;;;8.49;99.67;100342.33;1654703;86;20119;-72
2021/11/13 08:42:51;;;;;;;;;;;;;;;8.86;99.08;100342.89;1651951;86;20579;-70
2021/11/13 08:45:17;;;;;;;;;;;;;;;8.99;98.07;100347.58;1648476;86;20074;-69
2021/11/13 08:47:44;;;;;;;;;;;;;;;9.06;96.29;100358.72;1654324;86;21184;-73
2021/11/13 08:50:17;;;;;;;;;;;;;;;9.03;95.20;100359.17;1650845;87;20130;-73
2021/11/13 08:52:42;;;;;;;;;;;;;;;9.21;94.94;100356.47;1651598;85;20086;-71
2021/11/13 08:55:11;;;;;;;;;;;;;;;9.23;94.12;100353.05;1651947;86;20098;-73
2021/11/13 08:57:43;;;;;;;;;;;;;;;8.98;94.03;100355.83;1651095;87;20110;-72
2021/11/13 09:00:12;;;;;;;;;;;;;;;9.14;96.07;100353.08;1651254;86;21999;-72
2021/11/13 09:02:40;;;;;;;;;;;;;;;8.59;95.83;100361.89;1651219;86;20171;-71
2021/11/13 09:05:10;;;;;;;;;;;;;;;8.62;96.67;100360.63;1651708;86;20102;-75
2021/11/13 09:07:40;;;;;;;;;;;;;;;8.68;96.80;100357.90;1653465;86;20110;-73
2021/11/13 09:10:10;;;;;;;;;;;;;;;9.14;94.78;100357.91;1676787;85;20153;-72
2021/11/13 09:12:48;;;;;;;;;;;;;;;9.87;90.93;100354.25;1655438;85;20098;-71
2021/11/13 09:15:21;;;;;;;;;;;;;;;10.02;87.14;100353.81;1646734;86;20182;-72
2021/11/13 09:17:47;;;;;;;;;;;;;;;9.60;87.64;100352.98;1648692;85;20163;-72
2021/11/13 09:20:14;;;;;;;;;;;;;;;9.23;89.08;100349.88;1656017;86;20882;-75
2021/11/13 09:22:46;;;;;;;;;;;;;;;9.00;89.27;100355.09;1655886;86;20089;-74
2021/11/13 09:25:13;;;;;;;;;;;;;;;8.86;90.89;100360.28;1655768;85;21133;-73
2021/11/13 09:27:43;;;;;;;;;;;;;;;9.10;91.43;100356.72;1653999;85;20127;-70
2021/11/13 09:30:13;;;;;;;;;;;;;;;9.50;88.17;100360.22;1637798;86;20203;-72
2021/11/13 09:32:43;;;;;;;;;;;;;;;9.46;87.61;100355.05;1635003;86;20187;-74
2021/11/13 09:35:11;;;;;;;;;;;;;;;9.11;88.47;100357.00;1639775;85;20215;-73
2021/11/13 09:37:38;;;;;;;;;;;;;;;9.16;89.53;100349.63;1646351;86;21121;-72
2021/11/13 09:40:08;;;;;;;;;;;;;;;9.35;88.12;100349.09;1646580;85;20205;-72
2021/11/13 09:42:35;;;;;;;;;;;;;;;9.41;86.91;100354.38;1650965;86;20153;-72
2021/11/13 09:45:05;;;;;;;;;;;;;;;9.34;87.34;100350.96;1652604;85;20921;-73
2021/11/13 09:47:34;;;;;;;;;;;;;;;9.68;86.91;100347.31;1641532;87;20551;-74
2021/11/13 09:50:04;;;;;;;;;;;;;;;10.39;84.76;100346.95;1636745;86;20292;-72
2021/11/13 09:52:33;;;;;;;;;;;;;;;10.37;78.54;100342.33;1648129;86;20135;-73
2021/11/13 09:55:00;;;;;;;;;;;;;;;10.23;79.38;100343.04;1635000;86;20202;-72
2021/11/13 09:57:27;;;;;;;;;;;;;;;9.92;79.82;100348.20;1650309;86;20142;-73
2021/11/13 09:59:54;;;;;;;;;;;;;;;9.64;83.23;100348.28;1656424;85;20224;-72
2021/11/13 10:02:20;;;;;;;;;;;;;;;9.73;81.90;100342.08;1664484;85;21202;-72
2021/11/13 10:04:48;;;;;;;;;;;;;;;9.68;82.47;100341.11;1671029;85;20109;-73
2021/11/13 10:07:15;;;;;;;;;;;;;;;9.82;82.84;100346.58;1674530;84;20276;-73
2021/11/13 10:09:43;;;;;;;;;;;;;;;9.98;82.35;100337.07;1635228;86;20174;-72
2021/11/13 10:12:10;;;;;;;;;;;;;;;10.14;80.63;100340.39;1624550;88;20184;-72
2021/11/13 10:14:41;;;;;;;;;;;;;;;9.97;79.76;100336.26;1622319;88;21985;-72
2021/11/13 10:17:23;;;;;;;;;;;;;;;10.30;78.01;100332.23;1604393;87;20134;-72
2021/11/13 10:19:50;;;;;;;;;;;;;;;10.24;77.01;100335.30;1589909;89;20117;-71
2021/11/13 10:22:18;;;;;;;;;;;;;;;9.97;78.21;100337.59;1593269;89;20533;-70
2021/11/13 10:24:50;;;;;;;;;;;;;;;10.28;77.48;100334.33;1590647;89;20186;-69
2021/11/13 10:27:17;;;;;;;;;;;;;;;10.36;75.64;100332.63;1594536;88;21146;-70
2021/11/13 10:29:46;;;;;;;;;;;;;;;10.43;75.25;100342.73;1594566;89;20214;-70
2021/11/13 10:32:15;;;;;;;;;;;;;;;10.17;76.73;100337.80;1608400;89;20455;-70
2021/11/13 10:34:47;;;;;;;;;;;;;;;10.00;77.23;100333.11;1600130;87;20124;-71
2021/11/13 10:37:28;;;;;;;;;;;;;;;9.90;78.03;100334.70;1590098;88;20204;-70
2021/11/13 10:39:58;;;;;;;;;;;;;;;10.26;76.57;100340.41;1596674;88;21122;-71
2021/11/13 10:42:25;;;;;;;;;;;;;;;10.81;74.75;100339.28;1614706;86;20544;-69
2021/11/13 10:44:53;;;;;;;;;;;;;;;10.65;71.49;100334.89;1589489;89;20145;-71
2021/11/13 10:47:28;;;;;;;;;;;;;;;10.19;72.75;100335.69;1598577;88;20109;-71
2021/11/13 10:49:57;;;;;;;;;;;;;;;10.01;74.57;100336.07;1583208;89;20220;-72
2021/11/13 10:52:26;;;;;;;;;;;;;;;10.04;74.83;100332.95;1577002;88;22795;-71
2021/11/13 10:54:52;;;;;;;;;;;;;;;10.04;76.01;100334.29;1573336;90;20202;-71
2021/11/13 10:57:28;;;;;;;;;;;;;;;10.23;74.77;100334.18;1562201;90;20132;-72
2021/11/13 11:00:02;;;;;;;;;;;;;;;10.63;73.27;100331.66;1563350;90;20194;-72
2021/11/13 11:02:31;;;;;;;;;;;;;;;10.66;72.55;100325.81;1555809;91;20184;-71
2021/11/13 11:04:58;;;;;;;;;;;;;;;10.75;72.57;100327.59;1562886;90;21182;-69
2021/11/13 11:07:25;;;;;;;;;;;;;;;10.96;71.10;100329.38;1585995;87;20211;-70
2021/11/13 11:10:08;;;;;;;;;;;;;;;11.05;70.51;100317.19;1607544;88;20180;-71
2021/11/13 11:12:36;;;;;;;;;;;;;;;11.41;69.22;100317.36;1611859;89;20177;-70
2021/11/13 11:15:11;;;;;;;;;;;;;;;11.55;67.30;100316.01;1653247;84;20145;-71
2021/11/13 11:17:42;;;;;;;;;;;;;;;11.76;66.30;100313.70;1668208;85;20533;-72
2021/11/13 11:20:13;;;;;;;;;;;;;;;11.53;66.10;100316.77;1659325;86;20144;-71
2021/11/13 11:22:40;;;;;;;;;;;;;;;11.25;63.42;100316.27;1641090;86;20148;-71
2021/11/13 11:25:09;;;;;;;;;;;;;;;11.18;64.65;100310.75;1641125;87;20107;-71
2021/11/13 11:27:39;;;;;;;;;;;;;;;11.07;65.60;100305.68;1636525;86;20246;-71
2021/11/13 11:30:21;;;;;;;;;;;;;;;11.24;65.25;100306.55;1609468;87;21831;-71
2021/11/13 11:32:50;;;;;;;;;;;;;;;11.33;64.54;100309.16;1664737;84;20156;-71
2021/11/13 11:35:23;;;;;;;;;;;;;;;11.21;63.98;100306.23;1684933;84;20150;-70
2021/11/13 11:38:06;;;;;;;;;;;;;;;10.95;63.79;100300.37;1685384;84;20743;-70
2021/11/13 11:40:33;;;;;;;;;;;;;;;10.48;64.75;100304.45;1662824;84;20110;-69
2021/11/13 11:43:01;;;;;;;;;;;;;;;10.42;66.02;100307.55;1662946;86;21168;-69
2021/11/13 11:45:31;;;;;;;;;;;;;;;10.72;65.46;100303.37;1663248;84;20106;-70
2021/11/13 11:47:58;;;;;;;;;;;;;;;10.72;64.78;100303.91;1661652;84;20313;-69
2021/11/13 11:50:28;;;;;;;;;;;;;;;10.51;65.69;100295.95;1661024;85;20129;-69
2021/11/13 11:52:59;;;;;;;;;;;;;;;10.54;65.20;100291.98;1660967;86;20196;-69
2021/11/13 11:55:27;;;;;;;;;;;;;;;10.54;65.58;100297.35;1661189;85;21091;-72
2021/11/13 11:58:11;;;;;;;;;;;;;;;10.37;66.58;100302.08;1661087;86;20165;-71
2021/11/13 12:00:39;;;;;;;;;;;;;;;10.15;67.28;100305.83;1665627;85;20200;-72
2021/11/13 12:03:06;;;;;;;;;;;;;;;10.24;67.45;100295.55;1683447;85;20166;-70
2021/11/13 12:05:35;;;;;;;;;;;;;;;10.45;65.90;100298.22;1676660;85;20179;-69
2021/11/13 12:08:17;;;;;;;;;;;;;;;10.48;65.99;100299.08;1665110;85;21785;-70
2021/11/13 12:11:19;;;;;;;;;;;;;;;10.51;65.57;100297.30;1662453;85;20346;-72
2021/11/13 12:13:48;;;;;;;;;;;;;;;10.41;65.33;100302.41;1678794;85;20975;-71
2021/11/13 12:16:23;;;;;;;;;;;;;;;10.27;66.00;100294.58;1673617;85;20217;-71
2021/11/13 12:18:51;;;;;;;;;;;;;;;10.12;66.95;100294.23;1688087;85;20583;-70
2021/11/13 12:21:19;;;;;;;;;;;;;;;10.26;67.35;100292.96;1661400;85;21154;-71
2021/11/13 12:23:50;;;;;;;;;;;;;;;10.25;66.38;100291.84;1636321;85;20104;-70
2021/11/13 12:26:25;;;;;;;;;;;;;;;9.95;68.04;100292.76;1621808;87;20234;-70
2021/11/13 12:28:54;;;;;;;;;;;;;;;9.84;68.57;100282.29;1617821;87;20187;-69
2021/11/13 12:31:31;;;;;;;;;;;;;;;9.78;69.20;100287.25;1630844;87;20334;-71
2021/11/13 12:34:09;;;;;;;;;;;;;;;9.99;68.61;100287.20;1629521;86;20780;-69
2021/11/13 12:37:00;;;;;;;;;;;;;;;10.14;68.97;100287.27;1656490;85;20444;-70
2021/11/13 12:39:33;;;;;;;;;;;;;;;10.24;68.54;100289.69;1660540;85;20204;-69
2021/11/13 12:42:13;;;;;;;;;;;;;;;9.98;68.66;100276.73;1643229;86;20178;-70